This is the latest recevied weather packets stored in our database for station/object DK4DAX-2. If no packets are shown the sender has not sent any weather packets the latest 10 day(s).
| Time | Temp. | Humidity | Pressure | Rain* | Wind** | Luminosity | Snow |
|---|---|---|---|---|---|---|---|
| 1787617803 | 16.11° C | 59% | 1011.7 hPa | 0 mm | - | - | - |
| 1787616903 | 16.11° C | 58% | 1011.7 hPa | 0 mm | - | - | - |
| 1787616004 | 16.67° C | 57% | 1011.7 hPa | 0 mm | - | - | - |
| 1787615104 | 16.67° C | 55% | 1011.9 hPa | 0 mm | - | - | - |
| 1787614203 | 17.22° C | 53% | 1012.1 hPa | 0 mm | - | - | - |
| 1787613303 | 17.22° C | 53% | 1012.1 hPa | 0 mm | - | - | - |
| 1787612404 | 17.22° C | 52% | 1012.4 hPa | 0 mm | - | - | - |
| 1787611504 | 17.22° C | 53% | 1012.4 hPa | 0 mm | - | - | - |
| 1787610603 | 17.22° C | 52% | 1012.4 hPa | 0 mm | - | - | - |
| 1787609703 | 17.22° C | 53% | 1012.4 hPa | 0 mm | - | - | - |
| 1787608804 | 17.78° C | 53% | 1012.4 hPa | 0 mm | - | - | - |
| 1787607903 | 17.78° C | 52% | 1012.5 hPa | 0 mm | - | - | - |
| 1787607004 | 17.78° C | 53% | 1012.6 hPa | 0 mm | - | - | - |
| 1787606104 | 18.33° C | 54% | 1012.8 hPa | 0 mm | - | - | - |
| 1787605204 | 18.89° C | 53% | 1012.8 hPa | 0 mm | - | - | - |
| 1787604303 | 19.44° C | 51% | 1013 hPa | 0 mm | - | - | - |
| 1787603404 | 20° C | 48% | 1013.1 hPa | 0 mm | - | - | - |
| 1787549403 | 27.78° C | 26% | 1013.3 hPa | 0 mm | - | - | - |
| 1787548503 | 27.78° C | 26% | 1013.2 hPa | 0 mm | - | - | - |
| 1787473804 | 27.78° C | 26% | 1013.2 hPa | 0 mm | - | - | - |
| 1787472904 | 27.78° C | 26% | 1013 hPa | 0 mm | - | - | - |
| 1787472004 | 27.78° C | 26% | 1013.1 hPa | 0 mm | - | - | - |
| 1787471103 | 27.78° C | 26% | 1013 hPa | 0 mm | - | - | - |
| 1787470204 | 27.78° C | 26% | 1013 hPa | 0 mm | - | - | - |
| 1787469303 | 27.78° C | 26% | 1016.9 hPa | 0 mm | - | - | - |
* Rain latest hour (hover to see other rain measurements)
** Current wind speed in m/s (hover to see current wind gust speed)